Terminal Aerodrome Forecast
Issued by NWS

Home | Current Version | Previous Version | Text Only | Print | Product List | Glossary On
Versions: 1 2 3 4 5 6 7 8 9 10 11 12 13 14 15 16 17 18 19 20 21 22 23 24
000
FTUS46 KLOX 232338
TAFSBA
TAF
KSBA 232338Z 2400/2424 23008KT P6SM FEW010
     FM240200 VRB03KT P6SM SKC
     FM240700 10007KT 5SM BR OVC005
     FM241300 VRB03KT 6SM BR OVC008
     FM241700 16005KT P6SM BKN011
     FM242100 23008KT P6SM SCT011 SCT250=

USA.gov is the U.S. government's official web portal to all federal, state and local government web resources and services.